Latest Coastal Weather Observations for Portland Airport

IDS60701

Issued at 1:32 am CDT Tuesday 17 January 2017 (issued every 10 minutes, with the page automatically refreshed every 10 minutes)

About coastal observations | Map of coastal stations | Coastal observations for SA | Marine services | Other Formats
Station Details ID: 090171 Name: CASHMORE AIRPORT Lat: -38.31 Lon: 141.47 Height: 80.9 m
Data from the previous 72 hours. | See also: Recent months at Portland Airport
Date/Time
CDT
Temp
°C
Wind Pressure Rain since
9am
mm
Weather Cloud Vis
km
Sea
Height
m
Swell
Dir  Spd
kts
Gust
kts
hPa Trend Height
m
Period
s
Dir
17/01:30am 16.4 N 6 7 1008.6 - 0.2 - - 10 - - - -
17/01:00am 17.3 N 6 8 1008.8 - 0.2 - - 10 - - - -
17/12:30am 17.0 NNW 3 5 1009.0 - 0.2 - - 10 - - - -
17/12:00am 17.2 NW 3 4 1009.2 - 0.2 - - 10 - - - -
 
Date/Time
CDT
Temp
°C
Wind Pressure Rain since
9am
mm
Weather Cloud Vis
km
Sea
Height
m
Swell
Dir  Spd
kts
Gust
kts
hPa Trend Height
m
Period
s
Dir
16/11:30pm 17.9 CALM 0 0 1009.4 - 0.2 - Cloudy 10 - - - -
16/11:00pm 18.2 CALM 0 0 1009.7 - 0.2 - - 10 - - - -
16/10:30pm 18.9 NW 5 6 1009.8 - 0.2 - - 10 - - - -
16/10:00pm 18.7 CALM 0 0 1009.9 - 0.2 - - 10 - - - -
16/09:30pm 19.9 WNW 7 10 1009.9 - 0.2 - - 10 - - - -
16/09:00pm 20.3 W 9 12 1010.1 - 0.2 - - 10 - - - -
16/08:30pm 20.4 W 10 13 1009.8 - 0.2 - - 10 - - - -
16/08:00pm 21.7 WNW 9 13 1009.7 - 0.2 - - 10 - - - -
16/07:30pm 23.3 W 13 17 1009.7 - 0.2 - - 10 - - - -
16/07:00pm 25.3 W 10 14 1009.6 - 0.2 - - 10 - - - -
16/06:30pm 25.7 WNW 11 16 1009.1 - 0.2 - - 10 - - - -
16/06:00pm 26.0 W 10 14 1009.5 - 0.2 - - 10 - - - -
16/05:30pm 26.7 W 12 17 1009.9 - 0.2 - - 10 - - - -
16/05:00pm 27.0 W 11 14 1010.1 - 0.2 - - 10 - - - -
16/04:30pm 26.7 WSW 10 13 1010.4 - 0.2 - - 10 - - - -
16/04:00pm 25.7 WSW 9 12 1010.8 - 0.2 - - 10 - - - -
16/03:30pm 26.0 WSW 9 11 1011.1 - 0.2 - - 10 - - - -
16/03:00pm 27.2 WSW 8 12 1011.2 - 0.2 - - 10 - - - -
16/02:30pm 26.5 WSW 6 9 1011.6 - 0.2 - - 10 - - - -
16/02:00pm 25.5 SW 6 10 1012.1 - 0.2 - - 10 - - - -
16/01:30pm 26.2 W 7 10 1012.6 - 0.2 - - 10 - - - -
16/01:00pm 25.3 SW 7 10 1012.9 - 0.2 - - 10 - - - -
16/12:30pm 25.3 W 7 9 1013.1 - 0.2 - - 10 - - - -
16/12:00pm 24.7 W 7 12 1013.3 - 0.2 - - 10 - - - -
16/11:30am 23.2 NNW 3 7 1013.5 - 0.2 - - 10 - - - -
16/11:00am 21.7 NW 2 6 1013.8 - 0.2 - - 10 - - - -
16/10:30am 20.3 N 3 6 1014.4 - 0.2 - - 10 - - - -
16/10:00am 19.1 NNE 5 8 1014.7 - 0.0 - - 10 - - - -
16/09:30am 17.4 NNE 7 9 1015.0 - 0.0 - - 10 - - - -
16/09:00am 16.5 NE 7 11 1015.2 - 0.0 - - 10 - - - -
16/08:30am 15.1 NE 6 9 1015.3 - 0.0 - - 10 - - - -
16/08:00am 13.2 NNE 6 8 1015.4 - 0.0 - - 10 - - - -
16/07:30am 11.2 NNE 6 7 1015.2 - 0.0 - - 10 - - - -
16/07:00am 9.7 NNE 5 7 1015.1 - 0.0 - - 10 - - - -
16/06:49am 9.5 NNE 5 6 1015.1 - 0.0 - - 10 - - - -
16/06:30am 7.5 N 3 4 1015.1 - 0.0 - - 4 - - - -
16/06:26am 7.7 N 3 4 1015.2 - 0.0 - - 6 - - - -
16/06:00am 8.4 N 4 6 1014.9 - 0.0 - - 10 - - - -
16/05:30am 8.6 N 4 5 1015.0 - 0.0 - - 10 - - - -
16/05:00am 8.7 N 6 7 1015.1 - 0.0 - - 10 - - - -
16/04:30am 8.0 N 6 7 1015.1 - 0.0 - - 10 - - - -
16/04:00am 7.5 N 4 6 1015.0 - 0.0 - - 10 - - - -
16/03:30am 7.4 NNE 4 6 1014.8 - 0.0 - - 10 - - - -
16/03:00am 6.9 CALM 0 0 1014.9 - 0.0 - - 10 - - - -
16/02:30am 6.8 CALM 0 0 1015.3 - 0.0 - - 10 - - - -
16/02:00am 7.4 CALM 0 0 1015.5 - 0.0 - - 10 - - - -
16/01:30am 7.1 CALM 0 0 1016.0 - 0.0 - - 10 - - - -
16/01:00am 8.1 CALM 0 0 1016.2 - 0.0 - - 10 - - - -
16/12:30am 9.2 CALM 0 0 1016.5 - 0.0 - - 10 - - - -
16/12:00am 8.3 CALM 0 0 1016.7 - 0.0 - - 10 - - - -
 
Date/Time
CDT
Temp
°C
Wind Pressure Rain since
9am
mm
Weather Cloud Vis
km
Sea
Height
m
Swell
Dir  Spd
kts
Gust
kts
hPa Trend Height
m
Period
s
Dir
15/11:30pm 9.3 CALM 0 0 1017.1 - 0.0 - - 10 - - - -
15/11:00pm 9.5 CALM 0 0 1017.3 - 0.0 - - 10 - - - -
15/10:30pm 10.6 CALM 0 0 1017.5 - 0.0 - - 10 - - - -
15/10:00pm 10.9 SW 2 3 1017.8 - 0.0 - - 10 - - - -
15/09:30pm 11.7 SW 3 5 1017.9 - 0.0 - - 10 - - - -
15/09:00pm 12.9 SW 3 4 1017.9 - 0.0 - - 10 - - - -
15/08:30pm 13.7 SW 5 5 1018.0 - 0.0 - - 10 - - - -
15/08:00pm 15.5 SW 5 7 1017.6 - 0.0 - - 10 - - - -
15/07:30pm 16.3 WSW 6 8 1017.6 - 0.0 - Partly cloudy 10 - - - -
15/07:00pm 16.5 W 7 10 1017.6 - 0.0 - - 10 - - - -
15/06:30pm 16.3 WSW 8 11 1017.8 - 0.0 - Partly cloudy 10 - - - -
15/06:00pm 17.3 SW 8 11 1018.0 - 0.0 - Partly cloudy 10 - - - -
15/05:30pm 17.8 WSW 9 12 1018.1 - 0.0 - - 10 - - - -
15/05:00pm 18.2 WSW 9 13 1018.4 - 0.0 - Partly cloudy 10 - - - -
15/04:30pm 17.3 WSW 8 11 1018.7 - 0.0 - Partly cloudy 10 - - - -
15/04:00pm 17.4 WSW 10 14 1019.0 - 0.0 - Partly cloudy 10 - - - -
15/03:30pm 18.3 WSW 11 13 1019.1 - 0.0 - Partly cloudy 10 - - - -
15/03:00pm 18.1 WSW 10 16 1019.4 - 0.0 - Cloudy 10 - - - -
15/02:30pm 18.0 WSW 10 14 1019.6 - 0.0 - Mostly cloudy 10 - - - -
15/02:00pm 17.5 W 10 13 1019.4 - 0.0 - Partly cloudy 10 - - - -
15/01:30pm 16.4 WSW 9 13 1019.8 - 0.0 - Cloudy 10 - - - -
15/01:00pm 16.2 WSW 10 15 1020.0 - 0.0 - Cloudy 10 - - - -
15/12:30pm 16.4 W 9 14 1020.0 - 0.0 - Cloudy 10 - - - -
15/12:00pm 16.2 W 8 13 1019.9 - 0.0 - Cloudy 10 - - - -
15/11:30am 16.1 W 9 13 1020.0 - 0.0 - Cloudy 10 - - - -
15/11:00am 15.8 W 8 11 1020.0 - 0.0 - Cloudy 10 - - - -
15/10:30am 16.1 WSW 7 12 1019.9 - 0.0 - Cloudy 10 - - - -
15/10:00am 16.0 SW 8 13 1019.9 - 0.0 - Cloudy 10 - - - -
15/09:30am 15.6 W 8 11 1020.0 - 0.0 - Cloudy 10 - - - -
15/09:00am 15.6 WSW 6 9 1019.8 - 0.0 - Cloudy 10 - - - -
15/08:30am 15.2 WSW 6 9 1019.6 - 0.2 - Cloudy 10 - - - -
15/08:00am 15.0 WSW 4 5 1019.2 - 0.2 - Cloudy 10 - - - -
15/07:30am 14.6 WSW 4 6 1019.2 - 0.2 - Cloudy 10 - - - -
15/07:00am 14.1 WSW 4 5 1018.7 - 0.2 - Cloudy 10 - - - -
15/06:30am 13.6 SW 1 5 1018.3 - 0.2 - Cloudy 10 - - - -
15/06:00am 13.6 SW 2 4 1018.0 - 0.2 - Cloudy 10 - - - -
15/05:30am 13.7 WSW 4 6 1018.0 - 0.2 - Cloudy 10 - - - -
15/05:00am 13.8 WSW 4 5 1017.6 - 0.2 - Cloudy 10 - - - -
15/04:30am 14.0 SW 7 9 1017.4 - 0.2 - Cloudy 10 - - - -
15/04:00am 14.0 SW 6 8 1017.2 - 0.2 - Cloudy 10 - - - -
15/03:30am 14.0 SW 7 10 1017.3 - 0.2 - Cloudy 10 - - - -
15/03:00am 14.2 WSW 5 7 1017.2 - 0.2 - Cloudy 10 - - - -
15/02:30am 14.3 SW 5 9 1017.2 - 0.2 - Cloudy 10 - - - -
15/02:00am 14.2 SW 6 8 1017.2 - 0.2 - Cloudy 10 - - - -
15/01:30am 14.2 SW 7 10 1017.5 - 0.2 - Cloudy 10 - - - -
15/01:00am 14.3 SW 7 11 1017.8 - 0.2 - Cloudy 10 - - - -
15/12:30am 14.4 SW 7 12 1018.0 - 0.2 - Cloudy 10 - - - -
15/12:00am 14.4 SW 8 12 1018.0 - 0.2 - Cloudy 10 - - - -
 
Date/Time
CDT
Temp
°C
Wind Pressure Rain since
9am
mm
Weather Cloud Vis
km
Sea
Height
m
Swell
Dir  Spd
kts
Gust
kts
hPa Trend Height
m
Period
s
Dir
14/11:30pm 14.4 WSW 8 11 1018.0 - 0.2 - Cloudy 10 - - - -
14/11:00pm 14.5 SW 9 12 1017.9 - 0.2 - Cloudy 10 - - - -
14/10:30pm 14.5 SW 7 11 1017.6 - 0.2 - Cloudy 10 - - - -
14/10:00pm 14.3 SW 7 13 1017.8 - 0.2 - Cloudy 10 - - - -
14/09:30pm 14.5 SW 8 12 1017.5 - 0.2 - Partly cloudy 10 - - - -
14/09:00pm 14.7 SW 8 12 1017.1 - 0.2 - Cloudy 10 - - - -
14/08:30pm 14.9 SW 7 11 1016.9 - 0.2 - Cloudy 10 - - - -
14/08:00pm 15.1 WSW 8 12 1016.5 - 0.2 - Partly cloudy 10 - - - -
14/07:30pm 15.5 WSW 11 16 1016.3 - 0.2 - Partly cloudy 10 - - - -
14/07:00pm 16.0 WSW 11 18 1015.9 - 0.2 - Partly cloudy 10 - - - -
14/06:30pm 16.6 WSW 13 19 1015.7 - 0.2 - Partly cloudy 10 - - - -
14/06:00pm 16.8 WSW 16 20 1015.5 - 0.2 - - 10 - - - -
14/05:30pm 17.4 WSW 16 21 1015.2 - 0.2 - Cloudy 10 - - - -
14/05:00pm 16.7 WSW 16 21 1015.1 - 0.2 - Partly cloudy 10 - - - -
14/04:30pm 17.4 WSW 17 23 1015.1 - 0.2 - Partly cloudy 10 - - - -
14/04:00pm 18.0 WSW 17 23 1014.8 - 0.2 - Cloudy 10 - - - -
14/03:30pm 17.1 WSW 18 26 1014.3 - 0.2 - Partly cloudy 10 - - - -
14/03:00pm 16.9 WSW 18 23 1014.0 - 0.2 - Partly cloudy 10 - - - -
14/02:46pm 17.1 WSW 15 25 1013.7 - 0.2 - Partly cloudy 10 - - - -
14/02:37pm 16.4 WSW 18 27 1013.7 - 0.2 - Partly cloudy 10 - - - -
14/02:30pm 17.1 W 20 27 1013.4 - 0.2 - Cloudy 10 - - - -
14/02:00pm 17.3 WSW 19 27 1013.1 - 0.2 - Partly cloudy 10 - - - -
14/01:30pm 18.2 WSW 18 26 1012.9 - 0.2 - Partly cloudy 10 - - - -
14/01:10pm 16.7 WSW 18 28 1012.8 - 0.2 - Partly cloudy 10 - - - -
14/01:00pm 17.3 WSW 18 27 1012.7 - 0.2 - Partly cloudy 10 - - - -
14/12:30pm 16.3 SW 17 24 1012.5 - 0.2 - Partly cloudy 10 - - - -
14/12:23pm 16.1 WSW 19 29 1012.4 - 0.2 - Partly cloudy 10 - - - -
14/12:00pm 17.5 WSW 21 29 1011.8 - 0.2 - Partly cloudy 10 - - - -
14/11:30am 17.4 WSW 19 28 1011.3 - 0.2 - Cloudy 10 - - - -
14/11:00am 16.8 W 18 26 1010.7 - 0.2 - Partly cloudy 10 - - - -
14/10:39am 16.8 WSW 20 31 1010.2 - 0.2 - Partly cloudy 10 - - - -
14/10:30am 16.1 WSW 20 28 1010.3 - 0.2 - Partly cloudy 10 - - - -
14/10:06am 16.3 WSW 21 32 1009.8 - 0.2 - Partly cloudy 10 - - - -
14/10:00am 17.0 WSW 23 29 1009.6 - 0.2 - Partly cloudy 10 - - - -
14/09:37am 15.2 WSW 17 27 1009.7 - 0.2 - Partly cloudy 10 - - - -
14/09:30am 14.3 WSW 17 27 1009.8 - 0.2 - Partly cloudy 10 - - - -
14/09:21am 14.1 WSW 22 34 1009.9 - 0.2 - Partly cloudy 6 - - - -
14/09:00am 15.8 W 19 29 1009.3 - 0.0 - Partly cloudy 10 - - - -
14/08:30am 15.6 W 21 32 1008.9 - 11.2 - Cloudy 10 - - - -
14/08:00am 15.9 W 19 25 1008.4 - 11.2 - Partly cloudy 10 - - - -
14/07:31am 14.7 W 19 30 1008.0 - 11.2 - Partly cloudy 10 - - - -
14/07:30am 14.8 W 20 28 1008.0 - 11.2 - Partly cloudy 10 - - - -
14/07:18am 14.2 W 18 26 1007.8 - 11.2 - Partly cloudy 10 - - - -
14/07:02am 14.0 W 24 34 1007.6 - 11.2 - Partly cloudy 5 - - - -
14/07:00am 14.2 W 24 34 1007.6 - 11.2 - Partly cloudy 6 - - - -
14/06:38am 14.5 W 15 26 1006.8 - 11.2 - Partly cloudy 10 - - - -
14/06:30am 14.6 W 17 25 1006.8 - 11.2 - Partly cloudy 10 - - - -
14/06:22am 14.2 W 17 25 1006.6 - 11.2 - Partly cloudy 10 - - - -
14/06:08am 14.2 W 23 37 1006.5 - 11.2 - Partly cloudy 6 - - - -
14/06:00am 15.4 W 19 29 1006.3 - 11.2 - Partly cloudy 10 - - - -
14/05:34am 15.3 W 20 30 1005.8 - 11.2 - Partly cloudy 10 - - - -
14/05:30am 15.2 W 20 28 1005.8 - 11.2 - Cloudy 10 - - - -
14/05:03am 15.5 W 20 30 1005.5 - 11.2 - Partly cloudy 10 - - - -
14/05:00am 15.6 W 21 30 1005.4 - 11.2 - Partly cloudy 10 - - - -
14/04:34am 15.7 W 23 33 1005.3 - 11.2 - Partly cloudy 10 - - - -
14/04:30am 15.8 W 24 33 1005.2 - 11.2 - Partly cloudy 10 - - - -
14/04:01am 15.7 W 21 31 1004.8 - 11.2 - Partly cloudy 10 - - - -
14/04:00am 15.7 W 22 31 1004.8 - 11.2 - Partly cloudy 10 - - - -
14/03:38am 15.2 W 20 31 1004.7 - 11.2 - Partly cloudy 10 - - - -
14/03:30am 15.1 W 20 29 1004.8 - 11.2 - Partly cloudy 10 - - - -
14/03:13am 14.9 W 23 33 1004.8 - 11.2 - Partly cloudy 10 - - - -
14/03:00am 15.9 W 21 29 1004.6 - 11.2 - Partly cloudy 10 - - - -
14/02:30am 15.5 W 20 30 1004.7 - 11.2 - Cloudy 10 - - - -
14/02:03am 15.6 W 22 32 1004.7 - 11.2 - Partly cloudy 10 - - - -
14/02:00am 15.7 W 23 32 1004.6 - 11.2 - Partly cloudy 10 - - - -
14/01:42am 15.9 W 22 32 1004.6 - 11.2 - Partly cloudy 10 - - - -
14/01:30am 15.9 W 21 30 1004.7 - 11.2 - Partly cloudy 10 - - - -

Other Formats:

Comma delimited format used in spreadsheet applications
http://www.bom.gov.au/fwo/IDS60701/IDS60701.94828.axf

JavaScript Object Notation format (JSON) in row-major order
http://www.bom.gov.au/fwo/IDS60701/IDS60701.94828.json